Aérodrome :
LOGIN :

S'inscrire | Disclaimer

   EN    FR    IT 

 










Légende :    VFR   VFR Marginal   IFR   IFR Intensif   IFR Très Intensif
Visi : 
Plafond : 
>= 8 km
>= 3000ft
5 à 8 km
1000 à 3000 ft
1500m à 5 km
500 à 1000 ft
800 à 1500m
200 à 500 ft
< 800m
< 200 ft
Symboles :   Orages  Brouillard  Fortes neiges  Fortes précipitations  Vent > 20 kt
SIGMETs :   Divers  Orages  Givrage  Turbulence  Onde Orograph.  Cendres Volcan.







- Altitude de l'aérodrome : 538 ft
- Code IATA : TNF
- Voir les cartes d'approche


LFPN - Toussus Le Noble

DERNIER METAR :
  • 230800Z AUTO 29010KT 250V320 9999 OVC024 18/12 Q1020 NOSIG

METARs EXPIRÉS :
  • 230730Z AUTO 29009KT 260V330 9999 OVC022 17/12 Q1020 NOSIG
  • 230700Z AUTO 30008KT 9999 BKN019 OVC035 17/12 Q1019 NOSIG
  • 230630Z AUTO 29008KT 250V320 9999 BKN016 OVC022 17/13 Q1019 NOSIG
  • 230600Z AUTO 28008KT 250V320 9999 BKN013 OVC021 16/13 Q1019 TEMPO BKN030
  • 230530Z AUTO 28008KT 240V310 9999 BKN013 OVC020 16/13 Q1019 TEMPO BKN030

TAF TAF LFPN
Valide du 23 à 09h jusqu'au 23 à 18h UTC


230800Z 2309/2318 29009KT 9999 OVC022
BECMG 2312/2315 CAVOK
ATIS : +33 1 39 56 54 70
Pas de NOTAMs connus pour ce terrain.



MET'MAP, la Météo Aéronautique d'un coup d'oeil ! - Copyright ORBIFLY Décembre 2007 - Disclaimer

ORBIFLY MET'MAP TEAM :

Programmation & Développement : Alexandra Zaïnal
Conception & Développement : Baudouin d'Aumeries
Co-Programmation & Développement : Marc-Olivier Méhu
Soutien technique & logistique : Manuel Goepfert

Contact : metmap@orbifly.com




SOURCES & CREDITS :

   NOAA